Time;durP1;ratioP1;P1;durP2;ratioP2;P2;SDS_P1;SDS_P2;PMS_P1;PMS_P2;Temp;Humidity;BMP_temperature;BMP_pressure;BME280_temperature;BME280_humidity;BME280_pressure;Samples;Min_cycle;Max_cycle;Signal;HPM_P1;HPM_P2
2021/11/27 00:00:23;;;;;;;4.38;0.88;;;;;;;4.40;91.02;98393.47;5035235;28;20044;-73
2021/11/27 00:02:48;;;;;;;5.43;1.00;;;;;;;4.42;90.52;98395.81;5053703;28;20055;-73
2021/11/27 00:05:15;;;;;;;2.65;0.60;;;;;;;4.41;89.53;98404.47;5052985;28;20033;-73
2021/11/27 00:07:40;;;;;;;4.65;1.08;;;;;;;4.30;88.83;98404.13;5034998;28;20029;-73
2021/11/27 00:10:08;;;;;;;4.93;1.00;;;;;;;4.23;89.22;98405.13;5052957;28;20021;-72
2021/11/27 00:12:33;;;;;;;3.78;0.65;;;;;;;4.23;89.76;98395.72;5035094;28;20035;-72
2021/11/27 00:14:59;;;;;;;7.85;1.63;;;;;;;4.20;89.72;98393.56;5035118;28;20021;-73
2021/11/27 00:17:24;;;;;;;5.57;1.10;;;;;;;4.07;90.42;98385.94;5052749;28;20044;-73
2021/11/27 00:19:51;;;;;;;5.82;0.95;;;;;;;4.04;90.23;98382.03;5035068;28;20021;-73
2021/11/27 00:22:17;;;;;;;4.93;0.98;;;;;;;4.07;90.72;98384.16;5052557;28;20033;-73
2021/11/27 00:24:42;;;;;;;5.72;1.35;;;;;;;4.05;90.00;98381.03;5052475;28;20371;-72
2021/11/27 00:27:08;;;;;;;5.57;1.00;;;;;;;4.04;90.65;98381.25;5052431;28;20051;-73
2021/11/27 00:29:33;;;;;;;4.18;0.70;;;;;;;4.12;89.73;98375.13;5053726;28;20070;-73
2021/11/27 00:31:58;;;;;;;5.68;0.98;;;;;;;4.02;89.16;98370.44;5056713;28;20574;-73
2021/11/27 00:34:24;;;;;;;4.50;0.95;;;;;;;3.95;89.58;98370.47;5056724;28;20477;-72
2021/11/27 00:36:51;;;;;;;4.10;0.60;;;;;;;3.96;89.03;98366.91;5038747;28;20035;-72
2021/11/27 00:39:17;;;;;;;3.03;0.63;;;;;;;3.94;88.74;98357.88;5038643;28;20035;-72
2021/11/27 00:41:43;;;;;;;1.27;0.50;;;;;;;3.98;88.72;98361.59;5038694;28;20039;-72
2021/11/27 00:44:08;;;;;;;5.38;0.98;;;;;;;4.10;88.97;98359.19;5056402;28;20029;-72
2021/11/27 00:46:34;;;;;;;3.65;0.63;;;;;;;3.93;88.84;98354.53;5056465;28;20020;-72
2021/11/27 00:48:59;;;;;;;3.53;0.85;;;;;;;3.83;87.72;98366.97;5056392;28;20056;-72
2021/11/27 00:51:25;;;;;;;2.88;0.70;;;;;;;3.84;89.12;98366.75;5056683;28;20440;-72
2021/11/27 00:53:51;;;;;;;6.97;1.15;;;;;;;3.88;88.65;98364.56;5056297;28;20514;-72
2021/11/27 00:56:17;;;;;;;4.55;0.73;;;;;;;3.93;89.12;98359.66;5056296;28;20024;-72
2021/11/27 00:58:43;;;;;;;2.45;0.90;;;;;;;3.99;88.39;98368.28;5056761;28;20371;-72
2021/11/27 01:01:13;;;;;;;4.38;0.90;;;;;;;3.91;88.49;98361.63;5056166;28;20028;-72
2021/11/27 01:03:40;;;;;;;3.35;0.73;;;;;;;3.94;89.28;98368.09;5056114;28;20117;-72
2021/11/27 01:06:08;;;;;;;3.63;0.80;;;;;;;3.86;89.05;98369.13;5056068;28;20527;-72
2021/11/27 01:08:34;;;;;;;3.15;0.63;;;;;;;3.92;89.56;98370.09;5038072;28;20082;-72
2021/11/27 01:11:22;;;;;;;4.32;0.70;;;;;;;3.95;89.52;98365.34;5038196;28;20025;-72
2021/11/27 01:13:49;;;;;;;5.28;0.93;;;;;;;4.03;88.67;98367.69;5038054;28;20009;-72
2021/11/27 01:16:18;;;;;;;5.50;0.98;;;;;;;4.06;87.55;98364.72;5055692;28;20399;-72
2021/11/27 01:18:43;;;;;;;3.50;0.63;;;;;;;3.96;88.72;98363.56;5056700;28;20033;-72
2021/11/27 01:21:14;;;;;;;6.55;0.80;;;;;;;3.94;89.17;98360.44;5055777;28;20094;-72
2021/11/27 01:23:40;;;;;;;4.70;0.70;;;;;;;4.07;88.80;98365.50;5056265;28;20079;-71
2021/11/27 01:26:06;;;;;;;6.85;0.90;;;;;;;4.09;88.49;98363.53;5055677;28;20357;-72
2021/11/27 01:28:31;;;;;;;4.20;1.10;;;;;;;4.05;88.88;98363.13;5037793;28;20027;-73
2021/11/27 01:30:58;;;;;;;2.50;0.75;;;;;;;4.06;88.33;98359.59;5037654;28;20491;-73
2021/11/27 01:33:26;;;;;;;2.13;0.80;;;;;;;4.08;89.52;98364.50;5037635;28;20494;-73
2021/11/27 01:35:52;;;;;;;6.03;0.90;;;;;;;4.07;88.83;98358.59;5037733;28;20081;-73
2021/11/27 01:38:19;;;;;;;3.13;0.68;;;;;;;4.04;88.63;98365.91;5037626;28;20024;-74
2021/11/27 01:40:45;;;;;;;3.80;0.98;;;;;;;4.11;87.78;98369.19;5054366;28;20365;-73
2021/11/27 01:43:11;;;;;;;4.22;0.60;;;;;;;4.01;88.80;98371.41;5055191;28;20032;-73
2021/11/27 01:45:37;;;;;;;3.38;0.82;;;;;;;4.04;89.07;98366.69;5055424;28;20043;-73
2021/11/27 01:48:06;;;;;;;7.50;1.05;;;;;;;4.07;89.57;98371.38;5055319;28;20396;-73
2021/11/27 01:50:36;;;;;;;3.75;0.55;;;;;;;4.09;88.97;98365.31;5055350;28;20024;-73
2021/11/27 01:53:03;;;;;;;4.88;0.95;;;;;;;4.12;89.93;98360.56;5055344;28;20468;-73
2021/11/27 01:55:29;;;;;;;6.07;1.20;;;;;;;4.16;89.61;98374.50;5055219;28;20383;-73
2021/11/27 01:57:54;;;;;;;4.03;0.63;;;;;;;4.13;89.27;98371.56;5055293;28;20025;-73
2021/11/27 02:00:24;;;;;;;4.82;1.05;;;;;;;4.05;89.52;98364.91;5055604;28;20032;-73
2021/11/27 02:02:50;;;;;;;7.85;0.82;;;;;;;4.01;89.73;98374.75;5055043;28;20365;-73
2021/11/27 02:05:16;;;;;;;2.35;0.65;;;;;;;4.02;90.04;98376.31;5055047;28;20079;-73
2021/11/27 02:07:41;;;;;;;2.70;0.73;;;;;;;4.06;89.77;98377.50;5055043;28;20057;-73
2021/11/27 02:10:11;;;;;;;4.55;0.90;;;;;;;4.16;89.09;98381.38;5054893;28;20021;-73
2021/11/27 02:12:38;;;;;;;5.95;0.70;;;;;;;4.05;89.38;98386.13;5054806;28;20387;-73
2021/11/27 02:15:06;;;;;;;6.47;0.90;;;;;;;4.17;88.83;98383.75;5036919;28;20116;-73
2021/11/27 02:17:31;;;;;;;3.83;0.70;;;;;;;4.18;89.44;98384.53;5054696;28;20124;-73
2021/11/27 02:19:56;;;;;;;5.35;0.90;;;;;;;4.05;88.94;98381.03;5054677;28;20033;-73
2021/11/27 02:22:22;;;;;;;6.10;1.65;;;;;;;3.97;89.33;98377.91;5054615;28;20025;-73
2021/11/27 02:24:47;;;;;;;3.28;0.70;;;;;;;3.98;89.40;98387.94;5054655;28;20029;-74
2021/11/27 02:27:13;;;;;;;4.18;0.75;;;;;;;3.93;90.68;98389.53;5054603;28;20381;-73
2021/11/27 02:29:39;;;;;;;2.28;0.65;;;;;;;3.90;90.69;98395.84;5054575;28;20067;-73
2021/11/27 02:32:05;;;;;;;3.65;0.60;;;;;;;3.89;90.33;98394.28;5036580;28;20112;-73
2021/11/27 02:34:31;;;;;;;3.63;1.00;;;;;;;3.93;90.03;98394.66;5054436;28;20099;-73
2021/11/27 02:37:01;;;;;;;1.60;0.50;;;;;;;3.84;89.65;98396.63;5036573;28;20032;-73
2021/11/27 02:39:29;;;;;;;4.55;0.77;;;;;;;3.84;90.41;98394.88;5054360;28;20029;-73
2021/11/27 02:41:54;;;;;;;4.15;0.57;;;;;;;3.84;90.26;98407.63;5054254;28;20025;-73
2021/11/27 02:44:21;;;;;;;6.03;0.98;;;;;;;3.86;90.26;98401.56;5054317;28;20537;-73
2021/11/27 02:46:47;;;;;;;2.13;0.47;;;;;;;3.83;90.06;98402.75;5054260;28;20025;-73
2021/11/27 02:49:12;;;;;;;8.30;1.10;;;;;;;3.92;90.85;98409.19;5054204;28;20036;-73
2021/11/27 02:51:38;;;;;;;5.60;1.15;;;;;;;3.82;90.93;98403.72;5054311;28;20036;-73
2021/11/27 02:54:04;;;;;;;7.63;0.88;;;;;;;3.96;90.50;98409.56;5054017;28;20032;-73
2021/11/27 02:56:29;;;;;;;4.95;0.80;;;;;;;3.99;90.92;98411.72;5036227;28;20111;-73
2021/11/27 02:58:55;;;;;;;7.53;0.80;;;;;;;3.86;90.37;98417.66;5036202;28;20116;-73
2021/11/27 03:01:21;;;;;;;5.05;0.70;;;;;;;3.89;90.76;98417.25;5054056;28;20075;-73
2021/11/27 03:03:46;;;;;;;3.85;0.70;;;;;;;3.82;91.08;98422.38;5053809;28;20446;-73
2021/11/27 03:06:11;;;;;;;4.22;0.80;;;;;;;3.79;90.75;98416.88;5053887;28;20037;-73
2021/11/27 03:08:38;;;;;;;4.65;0.90;;;;;;;3.86;90.87;98417.66;5036045;28;20383;-73
2021/11/27 03:11:05;;;;;;;3.92;0.52;;;;;;;3.88;90.40;98425.13;5036002;28;20025;-73
2021/11/27 03:13:34;;;;;;;3.00;0.82;;;;;;;3.79;89.97;98419.44;5035846;28;20035;-73
2021/11/27 03:15:59;;;;;;;2.17;0.68;;;;;;;3.84;90.34;98425.53;5053688;28;20052;-74
2021/11/27 03:18:25;;;;;;;3.00;0.45;;;;;;;3.82;90.82;98424.94;5053701;28;20028;-73
2021/11/27 03:20:51;;;;;;;5.82;0.95;;;;;;;3.93;90.82;98427.88;5053762;28;20028;-73
2021/11/27 03:23:18;;;;;;;4.03;0.60;;;;;;;3.85;90.22;98433.97;5053939;28;20025;-73
2021/11/27 03:25:44;;;;;;;5.38;0.85;;;;;;;3.83;90.82;98441.84;5053582;28;20025;-73
2021/11/27 03:28:09;;;;;;;3.88;0.45;;;;;;;3.84;90.59;98432.41;5035662;28;20024;-73
2021/11/27 03:30:35;;;;;;;2.05;0.52;;;;;;;3.82;90.79;98442.03;5053502;28;20020;-73
2021/11/27 03:33:00;;;;;;;1.92;0.50;;;;;;;3.95;90.02;98442.00;5035551;28;20059;-73
2021/11/27 03:35:26;;;;;;;2.83;0.70;;;;;;;3.85;89.94;98446.75;5053403;28;20564;-73
2021/11/27 03:37:51;;;;;;;3.70;0.90;;;;;;;3.80;90.33;98456.81;5053348;28;20020;-73
2021/11/27 03:40:17;;;;;;;4.05;0.50;;;;;;;3.73;90.47;98443.25;5053357;28;20049;-73
2021/11/27 03:42:43;;;;;;;5.13;0.70;;;;;;;3.76;90.67;98453.06;5035332;28;20079;-73
2021/11/27 03:45:12;;;;;;;1.48;0.40;;;;;;;3.75;90.03;98454.06;5035445;28;20471;-73
2021/11/27 03:47:57;;;;;;;4.13;0.60;;;;;;;3.76;90.65;98450.50;5053799;28;20057;-73
2021/11/27 03:50:23;;;;;;;4.00;0.52;;;;;;;3.84;90.27;98463.84;5035382;28;20032;-73
2021/11/27 03:52:48;;;;;;;3.47;0.73;;;;;;;3.79;90.78;98461.09;5053184;28;20021;-73
2021/11/27 03:55:14;;;;;;;3.58;0.70;;;;;;;3.87;89.93;98470.34;5053064;28;20108;-73
2021/11/27 03:57:40;;;;;;;2.10;0.52;;;;;;;3.94;90.75;98476.22;5035305;28;20039;-72
2021/11/27 04:00:08;;;;;;;2.22;0.70;;;;;;;3.86;90.12;98473.88;5053150;28;20028;-72
2021/11/27 04:02:33;;;;;;;2.17;0.55;;;;;;;3.84;90.37;98476.63;5035133;28;20071;-72
2021/11/27 04:04:58;;;;;;;1.25;0.60;;;;;;;3.76;89.07;98470.94;5055143;28;20036;-72
2021/11/27 04:07:24;;;;;;;1.20;0.45;;;;;;;3.88;89.08;98482.13;5057281;28;20025;-73
2021/11/27 04:09:49;;;;;;;0.70;0.40;;;;;;;3.87;88.83;98480.56;5057286;28;20472;-73
2021/11/27 04:12:14;;;;;;;0.77;0.57;;;;;;;3.90;89.41;98490.38;5057224;28;20053;-73
2021/11/27 04:14:39;;;;;;;1.13;0.60;;;;;;;3.82;89.26;98488.81;5057473;28;20020;-73
2021/11/27 04:17:05;;;;;;;1.65;0.75;;;;;;;3.74;89.39;98486.47;5057072;28;20114;-73
2021/11/27 04:19:30;;;;;;;1.92;0.75;;;;;;;3.67;89.62;98490.78;5057077;28;20039;-73
2021/11/27 04:21:55;;;;;;;1.73;0.70;;;;;;;3.78;89.19;98497.06;5056987;28;20074;-72
2021/11/27 04:24:21;;;;;;;1.52;0.80;;;;;;;3.80;89.67;98500.22;5056859;28;20031;-72
2021/11/27 04:26:46;;;;;;;1.48;0.80;;;;;;;3.71;90.18;98503.94;5057130;28;20104;-73
2021/11/27 04:29:11;;;;;;;2.15;1.15;;;;;;;3.63;90.40;98511.84;5057381;28;20191;-72
2021/11/27 04:31:37;;;;;;;2.42;0.90;;;;;;;3.64;89.79;98516.72;5057117;28;20107;-72
2021/11/27 04:34:02;;;;;;;5.30;1.23;;;;;;;3.83;90.35;98513.38;5039249;28;20028;-72
2021/11/27 04:36:28;;;;;;;4.22;1.17;;;;;;;3.79;91.14;98521.63;5039017;28;20051;-73
2021/11/27 04:38:53;;;;;;;2.65;0.90;;;;;;;3.71;90.23;98522.63;5056654;28;20391;-73
2021/11/27 04:41:20;;;;;;;3.05;1.00;;;;;;;3.78;89.16;98528.53;5056919;28;20060;-73
2021/11/27 04:43:45;;;;;;;2.47;1.10;;;;;;;3.68;89.69;98517.13;5056497;28;20028;-73
2021/11/27 04:46:10;;;;;;;1.83;0.88;;;;;;;3.71;90.04;98521.84;5038659;28;20021;-73
2021/11/27 04:48:36;;;;;;;2.05;0.80;;;;;;;3.66;89.76;98534.44;5038623;28;20162;-73
2021/11/27 04:51:02;;;;;;;4.32;1.10;;;;;;;3.65;89.93;98535.41;5038584;28;20028;-72
2021/11/27 04:53:28;;;;;;;2.75;1.00;;;;;;;3.68;89.23;98532.44;5038509;28;20527;-73
2021/11/27 04:55:53;;;;;;;4.43;1.13;;;;;;;3.66;89.54;98542.09;5056283;28;20119;-72
2021/11/27 04:58:19;;;;;;;5.38;1.20;;;;;;;3.65;90.31;98550.72;5056333;28;20039;-72
2021/11/27 05:00:47;;;;;;;3.50;0.80;;;;;;;3.66;90.24;98552.31;5056244;28;20029;-73
2021/11/27 05:03:13;;;;;;;2.35;0.90;;;;;;;3.66;89.91;98554.88;5056140;28;20032;-72
2021/11/27 05:05:38;;;;;;;3.88;0.88;;;;;;;3.64;90.11;98564.47;5056694;28;20086;-72
2021/11/27 05:08:04;;;;;;;1.63;0.93;;;;;;;3.58;90.11;98555.84;5056135;28;20031;-73
2021/11/27 05:10:29;;;;;;;5.25;1.40;;;;;;;3.58;89.67;98548.16;5056368;28;20056;-72
2021/11/27 05:12:55;;;;;;;4.38;1.00;;;;;;;3.63;88.68;98565.47;5038136;28;20021;-72
2021/11/27 05:15:20;;;;;;;5.80;0.90;;;;;;;3.68;90.17;98565.66;5055789;28;20017;-72
2021/11/27 05:17:46;;;;;;;3.40;1.05;;;;;;;3.60;89.63;98572.53;5055883;28;20507;-72
2021/11/27 05:20:11;;;;;;;7.65;0.90;;;;;;;3.64;90.15;98574.69;5055905;28;20392;-72
2021/11/27 05:22:37;;;;;;;2.75;1.08;;;;;;;3.71;90.00;98576.28;5037886;28;20025;-72
2021/11/27 05:25:04;;;;;;;2.33;0.60;;;;;;;3.77;89.29;98585.72;5055961;28;20028;-72
2021/11/27 05:27:29;;;;;;;4.43;0.73;;;;;;;3.80;89.44;98582.78;5056114;28;20138;-72
2021/11/27 05:29:55;;;;;;;3.03;0.90;;;;;;;3.67;89.44;98589.63;5055771;28;20480;-72
2021/11/27 05:32:24;;;;;;;3.20;1.10;;;;;;;3.80;89.50;98594.75;5055764;28;20021;-72
2021/11/27 05:34:50;;;;;;;3.13;0.80;;;;;;;3.78;89.10;98592.38;5055861;28;20044;-71
2021/11/27 05:37:16;;;;;;;2.63;0.93;;;;;;;3.79;89.83;98596.50;5037774;28;20070;-72
2021/11/27 05:39:42;;;;;;;3.13;0.75;;;;;;;3.79;89.29;98606.72;5037765;28;20039;-72
2021/11/27 05:42:10;;;;;;;2.75;0.90;;;;;;;3.83;89.97;98604.59;5055502;28;20029;-72
2021/11/27 05:44:36;;;;;;;3.45;0.68;;;;;;;3.73;89.85;98606.72;5055393;28;20029;-72
2021/11/27 05:47:02;;;;;;;2.25;0.95;;;;;;;3.83;89.56;98620.69;5037628;28;20025;-72
2021/11/27 05:49:27;;;;;;;1.77;0.63;;;;;;;3.78;89.52;98614.59;5037587;28;20027;-72
2021/11/27 05:51:53;;;;;;;2.03;0.80;;;;;;;3.71;90.29;98616.34;5055908;28;20025;-73
2021/11/27 05:54:18;;;;;;;4.35;0.68;;;;;;;3.67;89.60;98621.06;5055702;28;20102;-73
2021/11/27 05:56:43;;;;;;;2.88;0.88;;;;;;;3.70;90.27;98619.91;5055280;28;20491;-73
2021/11/27 05:59:08;;;;;;;4.32;0.93;;;;;;;3.61;89.06;98634.63;5055242;28;20438;-73
2021/11/27 06:01:34;;;;;;;4.25;0.68;;;;;;;3.46;89.34;98629.69;5055158;28;20033;-73
2021/11/27 06:03:59;;;;;;;3.05;0.70;;;;;;;3.52;88.53;98636.56;5055572;28;20032;-73
2021/11/27 06:06:24;;;;;;;5.40;0.82;;;;;;;3.45;89.13;98637.53;5055269;28;20021;-73
2021/11/27 06:08:50;;;;;;;3.78;0.65;;;;;;;3.38;89.37;98640.84;5037294;28;20024;-73
2021/11/27 06:11:15;;;;;;;3.63;0.57;;;;;;;3.46;90.92;98637.34;5054986;28;20078;-73
2021/11/27 06:13:40;;;;;;;3.38;1.10;;;;;;;3.32;90.15;98638.28;5037055;28;20067;-73
2021/11/27 06:16:09;;;;;;;4.00;1.20;;;;;;;3.43;90.21;98647.94;5054762;28;20404;-73
2021/11/27 06:18:35;;;;;;;2.92;1.10;;;;;;;3.34;89.45;98646.56;5055182;28;20032;-73
2021/11/27 06:21:01;;;;;;;2.53;0.85;;;;;;;3.34;90.17;98651.66;5036918;28;20025;-73
2021/11/27 06:23:28;;;;;;;5.55;1.50;;;;;;;3.36;89.22;98644.56;5054721;28;20025;-72
2021/11/27 06:25:54;;;;;;;2.53;1.50;;;;;;;3.34;89.72;98647.34;5054786;28;20021;-72
2021/11/27 06:28:20;;;;;;;2.30;1.30;;;;;;;3.30;89.83;98653.78;5054029;28;20494;-72
2021/11/27 06:30:45;;;;;;;2.03;0.90;;;;;;;3.14;90.15;98654.91;5054655;28;20060;-72
2021/11/27 06:33:11;;;;;;;2.85;1.20;;;;;;;3.24;90.33;98658.88;5054551;28;20464;-72
2021/11/27 06:35:36;;;;;;;3.78;1.20;;;;;;;3.14;90.70;98654.13;5036696;28;20112;-72
2021/11/27 06:38:02;;;;;;;3.67;1.10;;;;;;;3.13;90.27;98658.44;5036667;28;20032;-73
2021/11/27 06:40:27;;;;;;;3.83;1.17;;;;;;;3.11;90.29;98660.41;5054397;28;20053;-73
2021/11/27 06:42:52;;;;;;;4.10;1.30;;;;;;;3.13;90.92;98667.84;5036469;28;20419;-73
2021/11/27 06:45:18;;;;;;;4.05;1.30;;;;;;;3.10;90.31;98675.91;5036454;28;20056;-73
2021/11/27 06:47:43;;;;;;;2.78;1.10;;;;;;;3.05;90.85;98680.78;5054724;28;20024;-72
2021/11/27 06:50:09;;;;;;;2.38;1.02;;;;;;;3.04;90.67;98682.53;5054284;28;20036;-72
2021/11/27 06:52:34;;;;;;;1.55;1.10;;;;;;;3.26;89.85;98685.00;5036450;28;20111;-73
2021/11/27 06:55:00;;;;;;;2.63;1.25;;;;;;;3.04;90.05;98680.00;5054201;28;20017;-73
2021/11/27 06:57:25;;;;;;;1.90;1.05;;;;;;;3.01;90.41;98682.91;5054404;28;20050;-73
2021/11/27 06:59:50;;;;;;;2.53;1.02;;;;;;;3.02;90.93;98694.72;5036720;28;20116;-73
2021/11/27 07:02:15;;;;;;;3.53;1.38;;;;;;;3.15;90.10;98688.88;5053971;28;20021;-73
2021/11/27 07:04:41;;;;;;;3.55;1.38;;;;;;;3.14;90.33;98694.97;5054331;28;20028;-73
2021/11/27 07:07:06;;;;;;;2.90;1.20;;;;;;;3.07;90.19;98701.78;5054240;28;20032;-73
2021/11/27 07:09:33;;;;;;;1.80;1.08;;;;;;;3.21;91.05;98707.75;5053960;28;20024;-73
2021/11/27 07:11:58;;;;;;;1.77;0.98;;;;;;;3.16;90.87;98716.78;5054443;28;20025;-74
2021/11/27 07:14:23;;;;;;;1.98;1.10;;;;;;;3.24;90.35;98720.13;5053940;28;20078;-73
2021/11/27 07:16:49;;;;;;;5.85;1.30;;;;;;;3.14;90.49;98726.38;5053601;28;20040;-73
2021/11/27 07:19:14;;;;;;;4.22;1.30;;;;;;;3.19;90.32;98723.25;5036019;28;20095;-73
2021/11/27 07:21:40;;;;;;;2.45;1.02;;;;;;;3.24;91.00;98726.03;5053812;28;20029;-73
2021/11/27 07:24:05;;;;;;;3.03;1.10;;;;;;;3.12;90.96;98728.31;5053735;28;20388;-73
2021/11/27 07:26:31;;;;;;;3.22;1.23;;;;;;;3.26;90.59;98733.50;5053773;28;20086;-73
2021/11/27 07:28:58;;;;;;;4.35;1.48;;;;;;;3.28;89.62;98723.88;5053599;28;20028;-73
2021/11/27 07:31:24;;;;;;;2.63;1.45;;;;;;;3.30;89.78;98739.78;5053579;28;20063;-73
2021/11/27 07:33:50;;;;;;;2.72;1.25;;;;;;;3.35;89.98;98740.03;5035508;28;20115;-73
2021/11/27 07:36:15;;;;;;;2.83;1.35;;;;;;;3.36;89.91;98732.16;5053267;28;20053;-74
2021/11/27 07:38:40;;;;;;;2.08;1.30;;;;;;;3.36;90.24;98744.94;5053375;28;20028;-72
2021/11/27 07:41:06;;;;;;;6.45;1.50;;;;;;;3.44;90.52;98744.00;5035451;28;20021;-72
2021/11/27 07:43:33;;;;;;;6.25;1.50;;;;;;;3.46;90.39;98741.25;5053420;28;20021;-72
2021/11/27 07:45:58;;;;;;;4.22;1.45;;;;;;;3.47;90.14;98746.16;5053311;28;20021;-71
2021/11/27 07:48:24;;;;;;;2.95;0.98;;;;;;;3.45;89.91;98739.66;5053298;28;20112;-72
2021/11/27 07:50:49;;;;;;;5.40;1.08;;;;;;;3.31;90.68;98743.91;5035732;28;20120;-72
2021/11/27 07:53:14;;;;;;;4.30;1.10;;;;;;;3.29;90.49;98738.22;5035320;28;20116;-72
2021/11/27 07:55:40;;;;;;;2.88;1.10;;;;;;;3.32;90.85;98742.97;5035236;28;20025;-73
2021/11/27 07:58:05;;;;;;;2.63;1.20;;;;;;;3.30;91.52;98739.78;5053585;28;20035;-72
2021/11/27 08:00:30;;;;;;;5.90;1.45;;;;;;;3.42;91.19;98748.50;5053193;28;20036;-72
2021/11/27 08:02:56;;;;;;;3.70;1.20;;;;;;;3.32;91.20;98758.28;5053105;28;20025;-73
2021/11/27 08:05:21;;;;;;;4.00;1.08;;;;;;;3.27;92.25;98766.50;5053334;28;20032;-72
2021/11/27 08:07:46;;;;;;;2.58;1.25;;;;;;;3.31;91.42;98764.34;5053231;28;20029;-71
2021/11/27 08:10:14;;;;;;;3.58;1.00;;;;;;;3.35;90.90;98766.34;5035273;28;20029;-73
2021/11/27 08:12:40;;;;;;;2.22;0.65;;;;;;;3.28;91.65;98764.72;5035411;28;20115;-72
2021/11/27 08:15:07;;;;;;;1.52;0.80;;;;;;;3.29;90.89;98773.97;5035425;28;20025;-73
2021/11/27 08:17:35;;;;;;;1.50;0.88;;;;;;;3.40;90.64;98781.09;5035187;28;20355;-73
2021/11/27 08:20:00;;;;;;;3.15;0.90;;;;;;;3.50;90.08;98776.41;5053291;28;20033;-73
2021/11/27 08:22:25;;;;;;;4.45;1.20;;;;;;;3.32;90.31;98783.81;5035514;28;20032;-72
2021/11/27 08:24:51;;;;;;;3.33;1.30;;;;;;;3.41;90.81;98790.34;5035876;28;20029;-73
2021/11/27 08:27:17;;;;;;;2.63;1.10;;;;;;;3.37;90.70;98791.69;5053130;28;20025;-73
2021/11/27 08:29:43;;;;;;;3.85;1.30;;;;;;;3.47;90.90;98791.34;5053071;28;20025;-73
2021/11/27 08:32:08;;;;;;;3.63;1.40;;;;;;;3.42;91.17;98799.56;5053082;28;20132;-73
2021/11/27 08:34:33;;;;;;;5.93;1.80;;;;;;;3.42;90.91;98814.88;5053012;28;20444;-72
2021/11/27 08:36:59;;;;;;;5.32;1.92;;;;;;;3.46;90.63;98818.66;5035042;28;20091;-73
2021/11/27 08:39:24;;;;;;;3.75;1.55;;;;;;;3.45;90.43;98829.03;5053085;28;20024;-74
2021/11/27 08:41:49;;;;;;;5.80;1.70;;;;;;;3.38;90.65;98829.00;5035101;28;20043;-72
2021/11/27 08:44:15;;;;;;;3.20;1.60;;;;;;;3.28;91.29;98833.66;5052845;28;20032;-72
2021/11/27 08:46:41;;;;;;;5.05;1.70;;;;;;;3.42;91.19;98842.97;5052991;28;20056;-72
2021/11/27 08:49:06;;;;;;;3.00;1.20;;;;;;;3.19;90.76;98837.31;5052973;28;20115;-72
2021/11/27 08:51:37;;;;;;;2.78;1.50;;;;;;;3.17;90.04;98847.75;5056185;28;20060;-72
2021/11/27 08:54:02;;;;;;;4.13;1.50;;;;;;;3.12;91.33;98830.41;5039407;28;20017;-72
2021/11/27 08:56:27;;;;;;;2.53;1.23;;;;;;;3.25;89.94;98846.78;5056574;28;20079;-73
2021/11/27 08:58:52;;;;;;;5.32;1.58;;;;;;;3.08;90.72;98866.69;5056456;28;20024;-73
2021/11/27 09:01:18;;;;;;;3.75;1.58;;;;;;;2.92;90.74;98867.75;5059898;28;20377;-73
2021/11/27 09:03:44;;;;;;;3.42;1.50;;;;;;;2.93;90.47;98854.84;5056319;28;20043;-73
2021/11/27 09:06:09;;;;;;;2.17;1.33;;;;;;;3.10;89.89;98850.22;5038513;28;20498;-74
2021/11/27 09:08:37;;;;;;;4.82;1.63;;;;;;;2.99;90.50;98860.94;5056541;28;20108;-74
2021/11/27 09:11:03;;;;;;;6.32;1.75;;;;;;;3.06;89.37;98851.59;5056970;28;20025;-74
2021/11/27 09:13:29;;;;;;;4.10;1.60;;;;;;;3.03;90.36;98848.63;5056667;28;20025;-73
2021/11/27 09:15:55;;;;;;;4.75;1.50;;;;;;;3.05;90.04;98849.19;5038691;28;20052;-74
2021/11/27 09:18:20;;;;;;;6.28;1.65;;;;;;;2.92;89.54;98858.34;5039147;28;20082;-73
2021/11/27 09:20:45;;;;;;;4.28;1.60;;;;;;;2.83;89.54;98856.09;5056045;28;20055;-71
2021/11/27 09:23:11;;;;;;;3.70;1.30;;;;;;;2.80;89.72;98864.13;5056452;28;20098;-73
2021/11/27 09:25:36;;;;;;;4.00;1.60;;;;;;;2.86;90.17;98871.84;5055878;28;20032;-73
2021/11/27 09:28:02;;;;;;;2.45;1.48;;;;;;;2.99;90.18;98881.34;5057068;28;20017;-73
2021/11/27 09:30:29;;;;;;;5.50;1.70;;;;;;;3.06;88.91;98883.97;5038507;28;20119;-72
2021/11/27 09:32:55;;;;;;;4.93;1.77;;;;;;;3.00;89.90;98882.94;5037725;28;20032;-72
2021/11/27 09:35:21;;;;;;;4.60;1.35;;;;;;;3.07;89.46;98885.53;5055655;28;20119;-75
2021/11/27 09:37:46;;;;;;;3.47;1.60;;;;;;;2.99;89.21;98889.00;5055550;28;20060;-72
2021/11/27 09:40:12;;;;;;;5.30;1.50;;;;;;;3.08;88.77;98885.38;5056166;28;20372;-72
2021/11/27 09:42:38;;;;;;;3.55;1.70;;;;;;;3.16;89.21;98892.09;5037549;28;20035;-72
2021/11/27 09:45:06;;;;;;;2.80;1.60;;;;;;;3.05;89.38;98890.84;5055545;28;20033;-72
2021/11/27 09:47:32;;;;;;;4.65;1.90;;;;;;;3.05;88.96;98897.69;5055456;28;20029;-71
2021/11/27 09:49:58;;;;;;;5.03;1.98;;;;;;;3.10;89.36;98898.72;5055336;28;20028;-71
2021/11/27 09:52:24;;;;;;;3.28;2.28;;;;;;;3.09;89.23;98897.16;5037535;28;20033;-73
2021/11/27 09:54:51;;;;;;;4.22;2.50;;;;;;;3.07;89.58;98893.97;5055873;28;20040;-72
2021/11/27 09:57:16;;;;;;;4.45;2.38;;;;;;;2.99;89.66;98895.88;5055309;28;20111;-73
2021/11/27 09:59:43;;;;;;;8.30;3.20;;;;;;;3.15;89.85;98898.97;5037336;28;20112;-74
2021/11/27 10:02:11;;;;;;;4.80;2.90;;;;;;;3.17;89.25;98893.69;5036746;28;20036;-73
2021/11/27 10:04:42;;;;;;;6.65;3.20;;;;;;;3.33;88.84;98907.94;5037177;28;20119;-69
2021/11/27 10:07:11;;;;;;;4.53;2.90;;;;;;;3.45;88.39;98895.44;5055216;28;20024;-71
2021/11/27 10:09:37;;;;;;;5.85;3.28;;;;;;;3.26;89.51;98902.78;5037251;28;20467;-72
2021/11/27 10:12:07;;;;;;;8.70;3.70;;;;;;;3.33;89.51;98890.06;5055000;28;20024;-73
2021/11/27 10:14:34;;;;;;;10.52;3.50;;;;;;;3.50;89.31;98899.00;5037662;28;20539;-72
2021/11/27 10:17:04;;;;;;;7.75;3.75;;;;;;;3.40;87.75;98898.56;5036896;28;20083;-73
2021/11/27 10:19:52;;;;;;;9.30;3.95;;;;;;;3.47;88.55;98894.28;5036946;28;20138;-73
2021/11/27 10:22:44;;;;;;;7.93;4.20;;;;;;;3.46;89.55;98891.94;5041852;28;20033;-71
2021/11/27 10:25:28;;;;;;;7.53;4.55;;;;;;;3.65;88.61;98891.22;5053949;28;20503;-73
2021/11/27 10:28:01;;;;;;;8.00;4.47;;;;;;;3.68;88.81;98895.19;5054919;28;20371;-71
2021/11/27 10:30:28;;;;;;;9.25;4.97;;;;;;;3.70;88.14;98899.13;5054906;28;20140;-72
2021/11/27 10:32:55;;;;;;;9.05;4.80;;;;;;;3.59;88.14;98892.78;5054800;28;20032;-73
2021/11/27 10:35:23;;;;;;;8.90;4.95;;;;;;;3.80;87.89;98899.59;5054661;28;20075;-74
2021/11/27 10:37:55;;;;;;;9.07;4.88;;;;;;;3.63;87.37;98895.75;5054564;28;20025;-73
2021/11/27 10:40:22;;;;;;;13.23;5.40;;;;;;;3.76;87.23;98900.94;5054813;28;20021;-73
2021/11/27 10:42:48;;;;;;;11.23;4.80;;;;;;;3.91;87.71;98902.56;5054276;28;20036;-73
2021/11/27 10:45:36;;;;;;;11.15;5.10;;;;;;;4.00;87.37;98904.00;5054329;28;20396;-73
2021/11/27 10:48:13;;;;;;;13.15;4.78;;;;;;;4.14;87.97;98895.41;5036840;28;20029;-73
2021/11/27 10:50:41;;;;;;;12.88;5.47;;;;;;;4.06;87.68;98900.69;5036340;28;20055;-73
2021/11/27 10:53:18;;;;;;;18.60;6.00;;;;;;;4.36;85.96;98900.41;5036166;28;20383;-72
2021/11/27 10:55:44;;;;;;;15.50;6.00;;;;;;;4.33;87.40;98898.22;5036437;28;20044;-72
2021/11/27 10:58:11;;;;;;;13.25;5.80;;;;;;;4.12;87.11;98899.94;5036289;28;20028;-71
2021/11/27 11:00:45;;;;;;;15.98;6.07;;;;;;;4.19;87.48;98912.72;5054133;28;20388;-73
2021/11/27 11:03:31;;;;;;;15.95;6.32;;;;;;;4.21;86.38;98908.22;5036239;28;20033;-73
2021/11/27 11:05:59;;;;;;;15.35;5.97;;;;;;;4.13;86.55;98921.94;5036183;28;20040;-74
2021/11/27 11:08:37;;;;;;;21.55;7.15;;;;;;;4.23;87.20;98917.28;5054348;28;20028;-71
2021/11/27 11:11:25;;;;;;;17.15;5.97;;;;;;;4.26;85.85;98916.13;5054026;28;20447;-71
2021/11/27 11:14:00;;;;;;;21.70;7.15;;;;;;;4.27;87.30;98920.25;5053945;28;20017;-72
2021/11/27 11:16:28;;;;;;;21.10;6.53;;;;;;;4.42;86.51;98904.75;5036158;28;20106;-70
2021/11/27 11:19:23;;;;;;;27.70;6.93;;;;;;;4.53;86.33;98914.41;5036079;28;20037;-72
2021/11/27 11:22:11;;;;;;;22.05;7.85;;;;;;;4.51;86.12;98922.28;5036746;28;20025;-71
2021/11/27 11:24:39;;;;;;;24.23;7.68;;;;;;;4.46;87.18;98918.72;5053965;28;20376;-71
2021/11/27 11:27:07;;;;;;;26.73;7.05;;;;;;;4.53;86.07;98920.31;5053751;28;20411;-73
2021/11/27 11:29:43;;;;;;;19.95;5.25;;;;;;;4.25;85.82;98920.41;5035766;28;20530;-74
2021/11/27 11:32:21;;;;;;;19.58;6.35;;;;;;;4.24;86.58;98920.63;5053647;28;20028;-73
2021/11/27 11:34:46;;;;;;;26.10;6.13;;;;;;;4.40;86.01;98925.41;5054142;28;20368;-71
2021/11/27 11:37:12;;;;;;;26.17;5.85;;;;;;;4.14;85.78;98925.28;5035641;28;20028;-72
2021/11/27 11:39:38;;;;;;;21.70;5.28;;;;;;;4.05;86.26;98927.22;5035947;28;20549;-72